sensor_id;sensor_type;location;lat;lon;timestamp;P1;durP1;ratioP1;P2;durP2;ratioP2
24713;SDS011;12820;51.580;5.010;2023-07-13T00:02:41;5.13;;;1.90;;
24713;SDS011;12820;51.580;5.010;2023-07-13T00:07:43;6.40;;;1.70;;
24713;SDS011;12820;51.580;5.010;2023-07-13T00:12:48;7.07;;;1.60;;
24713;SDS011;12820;51.580;5.010;2023-07-13T00:17:51;7.43;;;2.30;;
24713;SDS011;12820;51.580;5.010;2023-07-13T00:22:55;8.55;;;2.10;;
24713;SDS011;12820;51.580;5.010;2023-07-13T00:27:58;7.88;;;1.90;;
24713;SDS011;12820;51.580;5.010;2023-07-13T00:33:01;6.90;;;2.03;;
24713;SDS011;12820;51.580;5.010;2023-07-13T00:38:18;10.35;;;2.10;;
24713;SDS011;12820;51.580;5.010;2023-07-13T00:43:25;9.95;;;2.25;;
24713;SDS011;12820;51.580;5.010;2023-07-13T00:48:31;10.18;;;2.40;;
24713;SDS011;12820;51.580;5.010;2023-07-13T00:53:36;6.78;;;2.20;;
24713;SDS011;12820;51.580;5.010;2023-07-13T00:58:38;8.13;;;2.35;;
24713;SDS011;12820;51.580;5.010;2023-07-13T01:03:41;9.43;;;2.42;;
24713;SDS011;12820;51.580;5.010;2023-07-13T01:08:43;6.30;;;2.13;;
24713;SDS011;12820;51.580;5.010;2023-07-13T01:13:45;10.68;;;2.20;;
24713;SDS011;12820;51.580;5.010;2023-07-13T01:18:47;10.95;;;2.70;;
24713;SDS011;12820;51.580;5.010;2023-07-13T01:23:50;8.63;;;2.67;;
24713;SDS011;12820;51.580;5.010;2023-07-13T01:28:53;13.98;;;2.95;;
24713;SDS011;12820;51.580;5.010;2023-07-13T01:33:55;10.38;;;2.40;;
24713;SDS011;12820;51.580;5.010;2023-07-13T01:38:59;11.18;;;2.40;;
24713;SDS011;12820;51.580;5.010;2023-07-13T01:44:02;7.68;;;2.42;;
24713;SDS011;12820;51.580;5.010;2023-07-13T01:49:05;6.95;;;2.45;;
24713;SDS011;12820;51.580;5.010;2023-07-13T01:54:08;8.68;;;2.90;;
24713;SDS011;12820;51.580;5.010;2023-07-13T01:59:10;12.20;;;2.75;;
24713;SDS011;12820;51.580;5.010;2023-07-13T02:04:12;9.55;;;2.92;;
24713;SDS011;12820;51.580;5.010;2023-07-13T02:09:14;13.65;;;3.03;;
24713;SDS011;12820;51.580;5.010;2023-07-13T02:14:17;11.13;;;2.90;;
24713;SDS011;12820;51.580;5.010;2023-07-13T02:19:19;7.03;;;2.78;;
24713;SDS011;12820;51.580;5.010;2023-07-13T02:24:22;14.25;;;3.33;;
24713;SDS011;12820;51.580;5.010;2023-07-13T02:29:24;14.15;;;3.10;;
24713;SDS011;12820;51.580;5.010;2023-07-13T02:34:26;16.80;;;3.28;;
24713;SDS011;12820;51.580;5.010;2023-07-13T02:39:31;14.27;;;3.42;;
24713;SDS011;12820;51.580;5.010;2023-07-13T02:44:35;12.45;;;2.92;;
24713;SDS011;12820;51.580;5.010;2023-07-13T02:49:37;11.73;;;2.72;;
24713;SDS011;12820;51.580;5.010;2023-07-13T02:54:40;10.85;;;3.15;;
24713;SDS011;12820;51.580;5.010;2023-07-13T02:59:42;12.43;;;3.10;;
24713;SDS011;12820;51.580;5.010;2023-07-13T03:04:44;11.15;;;2.92;;
24713;SDS011;12820;51.580;5.010;2023-07-13T03:09:47;11.20;;;3.60;;
24713;SDS011;12820;51.580;5.010;2023-07-13T03:14:50;12.95;;;3.38;;
24713;SDS011;12820;51.580;5.010;2023-07-13T03:19:53;13.15;;;3.80;;
24713;SDS011;12820;51.580;5.010;2023-07-13T03:24:57;12.43;;;3.40;;
24713;SDS011;12820;51.580;5.010;2023-07-13T03:29:59;14.73;;;3.75;;
24713;SDS011;12820;51.580;5.010;2023-07-13T03:35:02;13.43;;;3.45;;
24713;SDS011;12820;51.580;5.010;2023-07-13T03:40:06;12.48;;;3.58;;
24713;SDS011;12820;51.580;5.010;2023-07-13T03:45:11;10.10;;;3.58;;
24713;SDS011;12820;51.580;5.010;2023-07-13T03:50:13;11.40;;;3.70;;
24713;SDS011;12820;51.580;5.010;2023-07-13T03:55:15;18.58;;;4.28;;
24713;SDS011;12820;51.580;5.010;2023-07-13T04:00:19;15.80;;;4.00;;
24713;SDS011;12820;51.580;5.010;2023-07-13T04:05:21;14.02;;;3.58;;
24713;SDS011;12820;51.580;5.010;2023-07-13T04:10:23;12.02;;;4.05;;
24713;SDS011;12820;51.580;5.010;2023-07-13T04:15:28;13.68;;;4.43;;
24713;SDS011;12820;51.580;5.010;2023-07-13T04:20:34;14.68;;;3.92;;
24713;SDS011;12820;51.580;5.010;2023-07-13T04:25:36;14.20;;;4.03;;
24713;SDS011;12820;51.580;5.010;2023-07-13T04:30:38;15.27;;;4.10;;
24713;SDS011;12820;51.580;5.010;2023-07-13T04:35:41;14.45;;;4.20;;
24713;SDS011;12820;51.580;5.010;2023-07-13T04:40:46;13.20;;;4.35;;
24713;SDS011;12820;51.580;5.010;2023-07-13T04:45:50;15.90;;;4.25;;
24713;SDS011;12820;51.580;5.010;2023-07-13T04:50:54;14.57;;;4.55;;
24713;SDS011;12820;51.580;5.010;2023-07-13T04:55:58;12.25;;;4.20;;
24713;SDS011;12820;51.580;5.010;2023-07-13T05:01:00;28.35;;;4.82;;
24713;SDS011;12820;51.580;5.010;2023-07-13T05:06:05;17.40;;;4.95;;
24713;SDS011;12820;51.580;5.010;2023-07-13T05:11:08;15.35;;;4.18;;
24713;SDS011;12820;51.580;5.010;2023-07-13T05:16:11;17.77;;;5.00;;
24713;SDS011;12820;51.580;5.010;2023-07-13T05:21:14;21.67;;;5.40;;
24713;SDS011;12820;51.580;5.010;2023-07-13T05:26:16;17.23;;;4.63;;
24713;SDS011;12820;51.580;5.010;2023-07-13T05:31:18;19.65;;;5.35;;
24713;SDS011;12820;51.580;5.010;2023-07-13T05:36:21;18.00;;;5.63;;
24713;SDS011;12820;51.580;5.010;2023-07-13T05:41:23;23.80;;;5.93;;
24713;SDS011;12820;51.580;5.010;2023-07-13T05:46:25;20.30;;;7.43;;
24713;SDS011;12820;51.580;5.010;2023-07-13T05:51:28;24.15;;;7.30;;
24713;SDS011;12820;51.580;5.010;2023-07-13T05:56:31;19.55;;;7.35;;
24713;SDS011;12820;51.580;5.010;2023-07-13T06:01:33;23.70;;;8.38;;
24713;SDS011;12820;51.580;5.010;2023-07-13T06:06:36;26.95;;;9.40;;
24713;SDS011;12820;51.580;5.010;2023-07-13T06:11:38;25.33;;;10.20;;
24713;SDS011;12820;51.580;5.010;2023-07-13T06:16:41;27.65;;;10.82;;
24713;SDS011;12820;51.580;5.010;2023-07-13T06:21:43;26.15;;;9.68;;
24713;SDS011;12820;51.580;5.010;2023-07-13T06:26:46;29.45;;;10.05;;
24713;SDS011;12820;51.580;5.010;2023-07-13T06:31:49;28.80;;;10.18;;
24713;SDS011;12820;51.580;5.010;2023-07-13T06:36:51;26.10;;;9.98;;
24713;SDS011;12820;51.580;5.010;2023-07-13T06:41:53;25.25;;;9.90;;
24713;SDS011;12820;51.580;5.010;2023-07-13T06:46:56;26.25;;;11.20;;
24713;SDS011;12820;51.580;5.010;2023-07-13T06:51:58;20.02;;;9.35;;
24713;SDS011;12820;51.580;5.010;2023-07-13T06:57:00;27.42;;;10.88;;
24713;SDS011;12820;51.580;5.010;2023-07-13T07:02:02;26.30;;;10.52;;
24713;SDS011;12820;51.580;5.010;2023-07-13T07:07:05;25.13;;;10.73;;
24713;SDS011;12820;51.580;5.010;2023-07-13T07:12:07;26.40;;;10.70;;
24713;SDS011;12820;51.580;5.010;2023-07-13T07:17:10;21.92;;;9.80;;
24713;SDS011;12820;51.580;5.010;2023-07-13T07:22:12;25.35;;;10.88;;
24713;SDS011;12820;51.580;5.010;2023-07-13T07:27:14;29.85;;;9.88;;
24713;SDS011;12820;51.580;5.010;2023-07-13T07:32:20;22.73;;;10.02;;
24713;SDS011;12820;51.580;5.010;2023-07-13T07:37:25;18.92;;;9.85;;
24713;SDS011;12820;51.580;5.010;2023-07-13T07:42:47;23.35;;;9.45;;
24713;SDS011;12820;51.580;5.010;2023-07-13T07:47:49;19.05;;;8.95;;
24713;SDS011;12820;51.580;5.010;2023-07-13T07:52:52;23.63;;;8.65;;
24713;SDS011;12820;51.580;5.010;2023-07-13T07:57:56;20.52;;;8.35;;
24713;SDS011;12820;51.580;5.010;2023-07-13T08:03:02;17.88;;;7.57;;
24713;SDS011;12820;51.580;5.010;2023-07-13T08:08:24;15.57;;;7.60;;
24713;SDS011;12820;51.580;5.010;2023-07-13T08:13:27;15.43;;;6.50;;
24713;SDS011;12820;51.580;5.010;2023-07-13T08:18:29;15.10;;;5.70;;
24713;SDS011;12820;51.580;5.010;2023-07-13T08:23:32;12.52;;;5.68;;
24713;SDS011;12820;51.580;5.010;2023-07-13T08:28:35;12.95;;;5.95;;
24713;SDS011;12820;51.580;5.010;2023-07-13T08:33:37;20.17;;;6.35;;
24713;SDS011;12820;51.580;5.010;2023-07-13T08:38:40;14.65;;;6.03;;
24713;SDS011;12820;51.580;5.010;2023-07-13T08:43:45;14.27;;;7.30;;
24713;SDS011;12820;51.580;5.010;2023-07-13T08:48:55;13.05;;;5.78;;
24713;SDS011;12820;51.580;5.010;2023-07-13T08:54:08;14.73;;;6.28;;
24713;SDS011;12820;51.580;5.010;2023-07-13T08:59:19;10.68;;;6.47;;
24713;SDS011;12820;51.580;5.010;2023-07-13T09:04:28;12.15;;;7.03;;
24713;SDS011;12820;51.580;5.010;2023-07-13T09:09:40;14.57;;;6.53;;
24713;SDS011;12820;51.580;5.010;2023-07-13T09:14:47;15.30;;;7.75;;
24713;SDS011;12820;51.580;5.010;2023-07-13T09:19:54;16.80;;;7.43;;
24713;SDS011;12820;51.580;5.010;2023-07-13T09:25:06;14.00;;;6.03;;
24713;SDS011;12820;51.580;5.010;2023-07-13T09:35:18;13.35;;;5.80;;
24713;SDS011;12820;51.580;5.010;2023-07-13T09:46:01;15.85;;;6.95;;
24713;SDS011;12820;51.580;5.010;2023-07-13T09:51:07;17.95;;;6.55;;
24713;SDS011;12820;51.580;5.010;2023-07-13T09:56:24;9.90;;;4.47;;
24713;SDS011;12820;51.580;5.010;2023-07-13T10:01:34;12.10;;;3.75;;
24713;SDS011;12820;51.580;5.010;2023-07-13T10:06:39;14.40;;;3.83;;
24713;SDS011;12820;51.580;5.010;2023-07-13T10:11:45;13.27;;;4.05;;
24713;SDS011;12820;51.580;5.010;2023-07-13T10:16:47;8.70;;;3.55;;
24713;SDS011;12820;51.580;5.010;2023-07-13T10:22:01;11.35;;;3.22;;
24713;SDS011;12820;51.580;5.010;2023-07-13T10:27:16;8.80;;;2.63;;
24713;SDS011;12820;51.580;5.010;2023-07-13T10:32:21;9.07;;;2.22;;
24713;SDS011;12820;51.580;5.010;2023-07-13T10:37:26;7.43;;;2.05;;
24713;SDS011;12820;51.580;5.010;2023-07-13T10:42:33;8.40;;;2.05;;
24713;SDS011;12820;51.580;5.010;2023-07-13T10:47:41;6.60;;;1.88;;
24713;SDS011;12820;51.580;5.010;2023-07-13T10:52:49;5.70;;;2.10;;
24713;SDS011;12820;51.580;5.010;2023-07-13T10:57:53;8.85;;;2.40;;
24713;SDS011;12820;51.580;5.010;2023-07-13T11:02:59;9.82;;;2.80;;
24713;SDS011;12820;51.580;5.010;2023-07-13T11:08:13;9.25;;;2.35;;
24713;SDS011;12820;51.580;5.010;2023-07-13T11:18:52;6.25;;;1.85;;
24713;SDS011;12820;51.580;5.010;2023-07-13T11:24:47;3.85;;;1.67;;
24713;SDS011;12820;51.580;5.010;2023-07-13T11:35:22;7.60;;;2.15;;
24713;SDS011;12820;51.580;5.010;2023-07-13T11:40:28;6.53;;;1.90;;
24713;SDS011;12820;51.580;5.010;2023-07-13T11:45:32;7.07;;;1.65;;
24713;SDS011;12820;51.580;5.010;2023-07-13T11:50:49;5.85;;;1.60;;
24713;SDS011;12820;51.580;5.010;2023-07-13T11:55:57;8.40;;;2.33;;
24713;SDS011;12820;51.580;5.010;2023-07-13T12:01:01;5.88;;;1.55;;
24713;SDS011;12820;51.580;5.010;2023-07-13T12:06:19;6.53;;;1.65;;
24713;SDS011;12820;51.580;5.010;2023-07-13T12:16:32;4.78;;;1.23;;
24713;SDS011;12820;51.580;5.010;2023-07-13T12:21:37;5.97;;;1.40;;
24713;SDS011;12820;51.580;5.010;2023-07-13T12:26:41;6.57;;;1.65;;
24713;SDS011;12820;51.580;5.010;2023-07-13T12:31:44;4.95;;;1.90;;
24713;SDS011;12820;51.580;5.010;2023-07-13T12:37:09;4.65;;;1.40;;
24713;SDS011;12820;51.580;5.010;2023-07-13T12:47:26;5.28;;;1.77;;
24713;SDS011;12820;51.580;5.010;2023-07-13T12:52:30;3.83;;;1.52;;
24713;SDS011;12820;51.580;5.010;2023-07-13T12:57:39;10.27;;;2.72;;
24713;SDS011;12820;51.580;5.010;2023-07-13T13:03:04;6.47;;;2.35;;
24713;SDS011;12820;51.580;5.010;2023-07-13T13:08:36;7.95;;;2.30;;
24713;SDS011;12820;51.580;5.010;2023-07-13T13:13:39;6.70;;;1.65;;
24713;SDS011;12820;51.580;5.010;2023-07-13T13:18:41;3.58;;;1.58;;
24713;SDS011;12820;51.580;5.010;2023-07-13T13:23:43;4.78;;;1.60;;
24713;SDS011;12820;51.580;5.010;2023-07-13T13:28:46;5.55;;;1.50;;
24713;SDS011;12820;51.580;5.010;2023-07-13T13:33:49;3.83;;;1.50;;
24713;SDS011;12820;51.580;5.010;2023-07-13T13:38:51;5.38;;;1.75;;
24713;SDS011;12820;51.580;5.010;2023-07-13T13:43:54;4.50;;;1.40;;
24713;SDS011;12820;51.580;5.010;2023-07-13T13:48:56;3.67;;;1.40;;
24713;SDS011;12820;51.580;5.010;2023-07-13T13:53:58;3.42;;;1.50;;
24713;SDS011;12820;51.580;5.010;2023-07-13T13:59:01;4.40;;;1.70;;
24713;SDS011;12820;51.580;5.010;2023-07-13T14:04:03;5.70;;;1.70;;
24713;SDS011;12820;51.580;5.010;2023-07-13T14:09:11;3.58;;;1.42;;
24713;SDS011;12820;51.580;5.010;2023-07-13T14:14:16;4.40;;;1.50;;
24713;SDS011;12820;51.580;5.010;2023-07-13T14:19:21;6.07;;;1.25;;
24713;SDS011;12820;51.580;5.010;2023-07-13T14:24:23;4.88;;;1.30;;
24713;SDS011;12820;51.580;5.010;2023-07-13T14:29:26;4.32;;;1.50;;
24713;SDS011;12820;51.580;5.010;2023-07-13T14:34:28;5.65;;;1.63;;
24713;SDS011;12820;51.580;5.010;2023-07-13T14:39:30;7.20;;;1.90;;
24713;SDS011;12820;51.580;5.010;2023-07-13T14:44:33;5.25;;;1.60;;
24713;SDS011;12820;51.580;5.010;2023-07-13T14:54:41;6.85;;;2.30;;
24713;SDS011;12820;51.580;5.010;2023-07-13T14:59:46;3.95;;;1.73;;
24713;SDS011;12820;51.580;5.010;2023-07-13T15:04:49;4.85;;;1.73;;
24713;SDS011;12820;51.580;5.010;2023-07-13T15:09:51;4.20;;;1.40;;
24713;SDS011;12820;51.580;5.010;2023-07-13T15:14:54;5.05;;;1.70;;
24713;SDS011;12820;51.580;5.010;2023-07-13T15:19:56;4.38;;;1.52;;
24713;SDS011;12820;51.580;5.010;2023-07-13T15:24:59;5.82;;;1.48;;
24713;SDS011;12820;51.580;5.010;2023-07-13T15:30:05;4.45;;;1.60;;
24713;SDS011;12820;51.580;5.010;2023-07-13T15:40:24;5.78;;;1.60;;
24713;SDS011;12820;51.580;5.010;2023-07-13T15:45:26;5.70;;;1.80;;
24713;SDS011;12820;51.580;5.010;2023-07-13T15:50:30;4.90;;;1.60;;
24713;SDS011;12820;51.580;5.010;2023-07-13T15:55:45;3.58;;;1.30;;
24713;SDS011;12820;51.580;5.010;2023-07-13T16:00:47;3.45;;;1.30;;
24713;SDS011;12820;51.580;5.010;2023-07-13T16:05:53;4.85;;;2.10;;
24713;SDS011;12820;51.580;5.010;2023-07-13T16:10:56;5.93;;;2.05;;
24713;SDS011;12820;51.580;5.010;2023-07-13T16:16:06;4.40;;;1.67;;
24713;SDS011;12820;51.580;5.010;2023-07-13T16:21:12;5.97;;;2.30;;
24713;SDS011;12820;51.580;5.010;2023-07-13T16:26:22;5.47;;;2.13;;
24713;SDS011;12820;51.580;5.010;2023-07-13T16:31:31;5.47;;;1.70;;
24713;SDS011;12820;51.580;5.010;2023-07-13T16:36:34;5.80;;;2.13;;
24713;SDS011;12820;51.580;5.010;2023-07-13T16:41:38;6.40;;;2.03;;
24713;SDS011;12820;51.580;5.010;2023-07-13T16:46:45;5.43;;;2.13;;
24713;SDS011;12820;51.580;5.010;2023-07-13T16:51:51;5.80;;;2.35;;
24713;SDS011;12820;51.580;5.010;2023-07-13T16:56:54;5.35;;;2.47;;
24713;SDS011;12820;51.580;5.010;2023-07-13T17:01:57;8.15;;;2.50;;
24713;SDS011;12820;51.580;5.010;2023-07-13T17:07:01;6.38;;;2.38;;
24713;SDS011;12820;51.580;5.010;2023-07-13T17:12:07;9.27;;;2.78;;
24713;SDS011;12820;51.580;5.010;2023-07-13T17:17:14;8.75;;;3.25;;
24713;SDS011;12820;51.580;5.010;2023-07-13T17:22:18;11.00;;;3.47;;
24713;SDS011;12820;51.580;5.010;2023-07-13T17:27:20;6.40;;;2.38;;
24713;SDS011;12820;51.580;5.010;2023-07-13T17:32:23;6.93;;;1.40;;
24713;SDS011;12820;51.580;5.010;2023-07-13T17:37:27;3.92;;;1.27;;
24713;SDS011;12820;51.580;5.010;2023-07-13T17:42:33;5.22;;;1.65;;
24713;SDS011;12820;51.580;5.010;2023-07-13T17:47:36;6.65;;;1.50;;
24713;SDS011;12820;51.580;5.010;2023-07-13T17:52:40;5.35;;;1.42;;
24713;SDS011;12820;51.580;5.010;2023-07-13T17:57:43;5.28;;;1.60;;
24713;SDS011;12820;51.580;5.010;2023-07-13T18:02:57;4.18;;;1.23;;
24713;SDS011;12820;51.580;5.010;2023-07-13T18:08:02;4.38;;;1.38;;
24713;SDS011;12820;51.580;5.010;2023-07-13T18:13:06;7.18;;;1.17;;
24713;SDS011;12820;51.580;5.010;2023-07-13T18:18:09;4.80;;;1.00;;
24713;SDS011;12820;51.580;5.010;2023-07-13T18:23:18;6.35;;;1.35;;
24713;SDS011;12820;51.580;5.010;2023-07-13T18:28:22;2.65;;;1.08;;
24713;SDS011;12820;51.580;5.010;2023-07-13T18:33:26;3.80;;;1.08;;
24713;SDS011;12820;51.580;5.010;2023-07-13T18:38:31;4.40;;;1.20;;
24713;SDS011;12820;51.580;5.010;2023-07-13T18:43:34;4.28;;;1.30;;
24713;SDS011;12820;51.580;5.010;2023-07-13T18:48:36;6.93;;;1.10;;
24713;SDS011;12820;51.580;5.010;2023-07-13T18:53:39;3.83;;;1.10;;
24713;SDS011;12820;51.580;5.010;2023-07-13T18:58:41;5.10;;;1.20;;
24713;SDS011;12820;51.580;5.010;2023-07-13T19:03:44;5.10;;;1.00;;
24713;SDS011;12820;51.580;5.010;2023-07-13T19:08:47;5.82;;;1.20;;
24713;SDS011;12820;51.580;5.010;2023-07-13T19:13:49;4.25;;;1.40;;
24713;SDS011;12820;51.580;5.010;2023-07-13T19:18:53;4.35;;;1.45;;
24713;SDS011;12820;51.580;5.010;2023-07-13T19:23:55;5.70;;;1.42;;
24713;SDS011;12820;51.580;5.010;2023-07-13T19:28:58;4.70;;;1.20;;
24713;SDS011;12820;51.580;5.010;2023-07-13T19:39:25;4.57;;;1.38;;
24713;SDS011;12820;51.580;5.010;2023-07-13T19:44:42;6.70;;;1.75;;
24713;SDS011;12820;51.580;5.010;2023-07-13T19:49:45;7.20;;;2.05;;
24713;SDS011;12820;51.580;5.010;2023-07-13T19:54:51;5.10;;;1.40;;
24713;SDS011;12820;51.580;5.010;2023-07-13T19:59:54;4.13;;;1.65;;
24713;SDS011;12820;51.580;5.010;2023-07-13T20:04:59;6.55;;;1.50;;
24713;SDS011;12820;51.580;5.010;2023-07-13T20:15:23;7.57;;;1.50;;
24713;SDS011;12820;51.580;5.010;2023-07-13T20:25:40;5.28;;;1.48;;
24713;SDS011;12820;51.580;5.010;2023-07-13T20:30:44;4.60;;;1.40;;
24713;SDS011;12820;51.580;5.010;2023-07-13T20:35:48;5.82;;;1.33;;
24713;SDS011;12820;51.580;5.010;2023-07-13T20:40:50;5.38;;;1.65;;
24713;SDS011;12820;51.580;5.010;2023-07-13T20:45:58;4.95;;;1.42;;
24713;SDS011;12820;51.580;5.010;2023-07-13T20:51:02;4.95;;;1.50;;
24713;SDS011;12820;51.580;5.010;2023-07-13T20:56:13;5.90;;;1.20;;
24713;SDS011;12820;51.580;5.010;2023-07-13T21:01:27;5.67;;;1.83;;
24713;SDS011;12820;51.580;5.010;2023-07-13T21:06:34;5.57;;;1.83;;
24713;SDS011;12820;51.580;5.010;2023-07-13T21:11:36;5.82;;;1.60;;
24713;SDS011;12820;51.580;5.010;2023-07-13T21:16:39;6.53;;;1.88;;
24713;SDS011;12820;51.580;5.010;2023-07-13T21:21:41;5.93;;;1.92;;
24713;SDS011;12820;51.580;5.010;2023-07-13T21:26:43;5.75;;;1.98;;
24713;SDS011;12820;51.580;5.010;2023-07-13T21:31:45;6.55;;;2.63;;
24713;SDS011;12820;51.580;5.010;2023-07-13T21:36:48;7.97;;;2.40;;
24713;SDS011;12820;51.580;5.010;2023-07-13T21:41:50;5.75;;;2.40;;
24713;SDS011;12820;51.580;5.010;2023-07-13T21:46:52;6.68;;;3.35;;
24713;SDS011;12820;51.580;5.010;2023-07-13T21:51:56;7.20;;;3.13;;
24713;SDS011;12820;51.580;5.010;2023-07-13T21:56:58;7.90;;;2.67;;
24713;SDS011;12820;51.580;5.010;2023-07-13T22:02:01;8.02;;;2.63;;
24713;SDS011;12820;51.580;5.010;2023-07-13T22:07:03;7.50;;;2.88;;
24713;SDS011;12820;51.580;5.010;2023-07-13T22:12:08;5.65;;;2.88;;
24713;SDS011;12820;51.580;5.010;2023-07-13T22:17:10;4.10;;;2.40;;
24713;SDS011;12820;51.580;5.010;2023-07-13T22:22:14;8.27;;;2.83;;
24713;SDS011;12820;51.580;5.010;2023-07-13T22:27:16;8.27;;;2.53;;
24713;SDS011;12820;51.580;5.010;2023-07-13T22:32:19;6.55;;;2.20;;
24713;SDS011;12820;51.580;5.010;2023-07-13T22:37:22;8.95;;;2.63;;
24713;SDS011;12820;51.580;5.010;2023-07-13T22:42:24;4.95;;;2.10;;
24713;SDS011;12820;51.580;5.010;2023-07-13T22:47:26;5.30;;;2.03;;
24713;SDS011;12820;51.580;5.010;2023-07-13T22:52:28;5.80;;;2.30;;
24713;SDS011;12820;51.580;5.010;2023-07-13T22:57:30;5.60;;;2.05;;
24713;SDS011;12820;51.580;5.010;2023-07-13T23:02:33;5.30;;;2.30;;
24713;SDS011;12820;51.580;5.010;2023-07-13T23:07:35;10.30;;;2.40;;
24713;SDS011;12820;51.580;5.010;2023-07-13T23:12:37;12.50;;;2.83;;
24713;SDS011;12820;51.580;5.010;2023-07-13T23:17:40;10.48;;;2.80;;
24713;SDS011;12820;51.580;5.010;2023-07-13T23:22:42;7.00;;;3.20;;
24713;SDS011;12820;51.580;5.010;2023-07-13T23:27:47;9.27;;;3.05;;
24713;SDS011;12820;51.580;5.010;2023-07-13T23:32:51;6.47;;;2.90;;
24713;SDS011;12820;51.580;5.010;2023-07-13T23:37:58;9.63;;;3.40;;
24713;SDS011;12820;51.580;5.010;2023-07-13T23:43:00;8.30;;;3.70;;
24713;SDS011;12820;51.580;5.010;2023-07-13T23:48:04;7.80;;;3.80;;
24713;SDS011;12820;51.580;5.010;2023-07-13T23:53:12;8.00;;;4.40;;
24713;SDS011;12820;51.580;5.010;2023-07-13T23:58:16;12.32;;;4.90;;
